Time;durP1;ratioP1;P1;durP2;ratioP2;P2;SDS_P1;SDS_P2;PMS_P1;PMS_P2;Temp;Humidity;BMP_temperature;BMP_pressure;BME280_temperature;BME280_humidity;BME280_pressure;Samples;Min_cycle;Max_cycle;Signal;HPM_P1;HPM_P2
2022/06/05 00:00:29;;;;;;;0.00;0.00;;;15.50;1.00;;;;;;5076339;28;20722;-69
2022/06/05 00:03:13;;;;;;;0.00;0.00;;;15.30;1.00;;;;;;5079933;28;20616;-70
2022/06/05 00:05:51;;;;;;;0.00;0.00;;;15.20;1.00;;;;;;5079730;28;20201;-69
2022/06/05 00:08:30;;;;;;;0.00;0.00;;;15.30;1.00;;;;;;5079700;28;20246;-69
2022/06/05 00:10:59;;;;;;;0.00;0.00;;;15.40;1.00;;;;;;5079735;28;20594;-69
2022/06/05 00:13:33;;;;;;;0.00;0.00;;;15.30;1.00;;;;;;5080239;28;20228;-69
2022/06/05 00:16:01;;;;;;;0.00;0.00;;;15.20;1.00;;;;;;5077633;28;20209;-68
2022/06/05 00:18:33;;;;;;;0.00;0.00;;;15.10;1.00;;;;;;5080251;28;20204;-68
2022/06/05 00:21:01;;;;;;;0.00;0.00;;;15.00;1.00;;;;;;5077386;28;20205;-69
2022/06/05 00:23:30;;;;;;;0.00;0.00;;;15.00;1.00;;;;;;5080642;28;20228;-68
2022/06/05 00:26:07;;;;;;;0.00;0.00;;;15.00;1.00;;;;;;5078891;28;20695;-68
2022/06/05 00:28:39;;;;;;;0.00;0.00;;;15.00;1.00;;;;;;5078821;28;20626;-69
2022/06/05 00:31:17;;;;;;;0.00;0.00;;;15.00;1.00;;;;;;5080569;28;20617;-69
2022/06/05 00:33:47;;;;;;;0.08;0.08;;;14.90;1.00;;;;;;5079564;28;20690;-69
2022/06/05 00:36:28;;;;;;;0.00;0.00;;;15.10;1.00;;;;;;5077866;28;20682;-69
2022/06/05 00:39:05;;;;;;;0.00;0.00;;;15.20;1.00;;;;;;5077212;28;20208;-69
2022/06/05 00:41:54;;;;;;;0.00;0.00;;;15.20;1.00;;;;;;5078884;28;20197;-69
2022/06/05 00:44:29;;;;;;;0.00;0.00;;;15.00;1.00;;;;;;5078055;28;20228;-69
2022/06/05 00:46:59;;;;;;;0.10;0.10;;;15.00;1.00;;;;;;5079371;28;20201;-69
2022/06/05 00:49:37;;;;;;;0.00;0.00;;;15.10;1.00;;;;;;5078512;28;20205;-68
2022/06/05 00:52:08;;;;;;;0.00;0.00;;;15.20;1.00;;;;;;5078597;28;20229;-68
2022/06/05 00:54:37;;;;;;;0.00;0.00;;;15.20;1.00;;;;;;5080188;28;20229;-68
2022/06/05 00:57:08;;;;;;;0.10;0.10;;;15.20;1.00;;;;;;5078962;28;20206;-69
2022/06/05 00:59:38;;;;;;;0.00;0.00;;;15.20;1.00;;;;;;5076883;28;20231;-68
2022/06/05 01:02:07;;;;;;;0.00;0.00;;;15.20;1.00;;;;;;5078094;28;20258;-68
2022/06/05 01:04:38;;;;;;;0.00;0.00;;;15.10;1.00;;;;;;5080197;28;20715;-68
2022/06/05 01:07:06;;;;;;;0.03;0.03;;;15.10;1.00;;;;;;5079522;28;20688;-68
2022/06/05 01:09:34;;;;;;;0.00;0.00;;;14.90;1.00;;;;;;5078649;28;20208;-67
2022/06/05 01:12:10;;;;;;;0.00;0.00;;;14.70;1.00;;;;;;5077355;28;20532;-67
2022/06/05 01:14:50;;;;;;;0.00;0.00;;;14.50;1.00;;;;;;5077630;28;20719;-67
2022/06/05 01:17:26;;;;;;;0.10;0.10;;;14.50;1.00;;;;;;5080157;28;20601;-68
2022/06/05 01:20:10;;;;;;;0.00;0.00;;;14.50;1.00;;;;;;5080184;28;20205;-68
2022/06/05 01:23:09;;;;;;;0.00;0.00;;;14.40;1.00;;;;;;5079420;28;20197;-68
2022/06/05 01:25:44;;;;;;;0.00;0.00;;;14.50;1.00;;;;;;5078366;28;20548;-68
2022/06/05 01:28:17;;;;;;;0.00;0.00;;;14.30;1.00;;;;;;5079879;28;20211;-69
2022/06/05 01:31:00;;;;;;;0.00;0.00;;;14.20;1.00;;;;;;5080373;28;20197;-68
2022/06/05 01:33:29;;;;;;;0.10;0.10;;;14.20;1.00;;;;;;5076019;28;20236;-67
2022/06/05 01:36:10;;;;;;;0.10;0.10;;;14.20;1.00;;;;;;5077646;28;20205;-67
2022/06/05 01:38:46;;;;;;;0.00;0.00;;;14.20;1.00;;;;;;5074885;28;20719;-68
2022/06/05 01:41:19;;;;;;;0.00;0.00;;;14.30;1.00;;;;;;5080996;28;20672;-68
2022/06/05 01:43:51;;;;;;;0.00;0.00;;;14.30;1.00;;;;;;5078517;28;20267;-67
2022/06/05 01:46:24;;;;;;;0.00;0.00;;;14.30;1.00;;;;;;5078644;28;20250;-67
2022/06/05 01:49:00;;;;;;;0.00;0.00;;;14.30;1.00;;;;;;5079460;28;20209;-67
2022/06/05 01:51:33;;;;;;;0.00;0.00;;;14.20;1.00;;;;;;5077906;28;20691;-67
2022/06/05 01:54:09;;;;;;;0.00;0.00;;;14.10;1.00;;;;;;5078414;28;20568;-69
2022/06/05 01:56:42;;;;;;;0.00;0.00;;;14.00;1.00;;;;;;5077862;28;20254;-68
2022/06/05 01:59:17;;;;;;;0.10;0.10;;;13.70;1.00;;;;;;5079550;28;20201;-68
2022/06/05 02:01:48;;;;;;;0.10;0.10;;;13.70;1.00;;;;;;5075403;28;20224;-69
2022/06/05 02:04:21;;;;;;;0.10;0.10;;;13.70;1.00;;;;;;5077863;28;20229;-68
2022/06/05 02:06:54;;;;;;;0.10;0.10;;;13.90;1.00;;;;;;5076512;28;20202;-67
2022/06/05 02:09:26;;;;;;;0.10;0.10;;;13.90;1.00;;;;;;5078201;28;20214;-68
2022/06/05 02:11:56;;;;;;;0.00;0.00;;;13.80;1.00;;;;;;5078823;28;20201;-68
2022/06/05 02:14:25;;;;;;;0.00;0.00;;;13.80;1.00;;;;;;5077738;28;20629;-69
2022/06/05 02:16:53;;;;;;;0.00;0.00;;;13.80;1.00;;;;;;5078257;28;20255;-67
2022/06/05 02:19:23;;;;;;;0.00;0.00;;;13.90;1.00;;;;;;5078696;28;20681;-69
2022/06/05 02:21:54;;;;;;;0.10;0.10;;;14.00;1.00;;;;;;5078356;28;20193;-67
2022/06/05 02:24:22;;;;;;;0.03;0.03;;;13.80;1.00;;;;;;5079445;28;20222;-67
2022/06/05 02:26:49;;;;;;;0.10;0.10;;;13.70;1.00;;;;;;5081343;28;20210;-67
2022/06/05 02:29:22;;;;;;;0.10;0.10;;;13.60;1.00;;;;;;5080409;28;20257;-67
2022/06/05 02:32:04;;;;;;;0.10;0.10;;;13.50;1.00;;;;;;5083788;28;20201;-67
2022/06/05 02:34:40;;;;;;;0.00;0.00;;;13.50;1.00;;;;;;5081692;28;20250;-67
2022/06/05 02:37:18;;;;;;;0.00;0.00;;;13.50;1.00;;;;;;5081891;28;20692;-68
2022/06/05 02:39:55;;;;;;;0.00;0.00;;;13.60;1.00;;;;;;5082560;28;20209;-68
2022/06/05 02:42:29;;;;;;;0.00;0.00;;;13.60;1.00;;;;;;5081935;28;20213;-70
2022/06/05 02:45:08;;;;;;;0.10;0.10;;;13.50;1.00;;;;;;5078337;28;20229;-67
2022/06/05 02:47:44;;;;;;;0.00;0.00;;;13.50;1.00;;;;;;5081357;28;20723;-70
2022/06/05 02:50:18;;;;;;;0.00;0.00;;;13.50;1.00;;;;;;5080297;28;20239;-68
2022/06/05 02:52:47;;;;;;;0.10;0.10;;;13.50;1.00;;;;;;5082213;28;20669;-68
2022/06/05 02:55:17;;;;;;;0.10;0.10;;;13.50;1.00;;;;;;5080701;28;20213;-70
2022/06/05 02:57:45;;;;;;;0.10;0.10;;;13.30;1.00;;;;;;5082246;28;20193;-68
2022/06/05 03:00:17;;;;;;;0.00;0.00;;;13.20;1.00;;;;;;5082894;28;20202;-68
2022/06/05 03:05:30;;;;;;;0.05;0.05;;;13.30;1.00;;;;;;5081239;28;20201;-68
2022/06/05 03:07:58;;;;;;;0.00;0.00;;;13.30;1.00;;;;;;5082644;28;20201;-68
2022/06/05 03:10:26;;;;;;;0.00;0.00;;;13.40;1.00;;;;;;5082387;28;20193;-68
2022/06/05 03:12:54;;;;;;;0.00;0.00;;;13.40;1.00;;;;;;5082530;28;20198;-68
2022/06/05 03:15:24;;;;;;;0.00;0.00;;;13.30;1.00;;;;;;5080812;28;20209;-68
2022/06/05 03:17:52;;;;;;;0.00;0.00;;;13.50;1.00;;;;;;5079802;28;20209;-67
2022/06/05 03:20:20;;;;;;;0.00;0.00;;;13.70;1.00;;;;;;5080657;28;20197;-68
2022/06/05 03:22:48;;;;;;;0.00;0.00;;;13.70;1.00;;;;;;5081191;28;20196;-69
2022/06/05 03:25:18;;;;;;;0.03;0.03;;;13.60;1.00;;;;;;5081540;28;20274;-68
2022/06/05 03:27:46;;;;;;;0.00;0.00;;;13.50;1.00;;;;;;5081810;28;20690;-69
2022/06/05 03:30:16;;;;;;;0.03;0.03;;;13.20;1.00;;;;;;5079236;28;20279;-67
2022/06/05 03:32:46;;;;;;;0.00;0.00;;;13.00;1.00;;;;;;5079710;28;20221;-67
2022/06/05 03:35:15;;;;;;;0.00;0.00;;;12.80;1.00;;;;;;5078715;28;20692;-68
2022/06/05 03:37:42;;;;;;;0.00;0.00;;;12.80;1.00;;;;;;5079532;28;20266;-67
2022/06/05 03:40:13;;;;;;;0.00;0.00;;;12.90;1.00;;;;;;5078986;28;20204;-67
2022/06/05 03:42:41;;;;;;;0.10;0.10;;;13.00;1.00;;;;;;5081636;28;20232;-67
2022/06/05 03:45:12;;;;;;;0.00;0.00;;;13.10;1.00;;;;;;5081297;28;20769;-68
2022/06/05 03:47:40;;;;;;;0.00;0.00;;;13.10;1.00;;;;;;5079820;28;20205;-68
2022/06/05 03:50:10;;;;;;;0.10;0.10;;;13.10;1.00;;;;;;5079480;28;20258;-68
2022/06/05 03:52:38;;;;;;;0.10;0.10;;;13.20;1.00;;;;;;5079954;28;20527;-67
2022/06/05 03:55:06;;;;;;;0.05;0.05;;;13.10;1.00;;;;;;5081213;28;20233;-67
2022/06/05 03:57:34;;;;;;;0.10;0.10;;;13.10;1.00;;;;;;5080803;28;20258;-67
2022/06/05 04:00:04;;;;;;;0.10;0.10;;;13.00;1.00;;;;;;5079325;28;20250;-67
2022/06/05 04:02:39;;;;;;;0.10;0.10;;;13.10;1.00;;;;;;5079623;28;20200;-67
2022/06/05 04:05:10;;;;;;;0.10;0.10;;;13.10;1.00;;;;;;5080154;28;20772;-67
2022/06/05 04:07:38;;;;;;;0.00;0.00;;;13.10;1.00;;;;;;5080206;28;20208;-68
2022/06/05 04:10:06;;;;;;;0.00;0.00;;;13.00;1.00;;;;;;5079386;28;20822;-68
2022/06/05 04:12:34;;;;;;;0.00;0.00;;;13.00;1.00;;;;;;5079097;28;20205;-68
2022/06/05 04:15:03;;;;;;;0.03;0.03;;;13.00;1.00;;;;;;5078056;28;20278;-68
2022/06/05 04:17:30;;;;;;;0.00;0.00;;;13.00;1.00;;;;;;5078463;28;20250;-68
2022/06/05 04:19:58;;;;;;;0.00;0.00;;;13.00;1.00;;;;;;5080156;28;20196;-68
2022/06/05 04:22:27;;;;;;;0.10;0.10;;;12.90;1.00;;;;;;5077290;28;20549;-69
2022/06/05 04:24:55;;;;;;;0.00;0.00;;;13.00;1.00;;;;;;5080220;28;20221;-68
2022/06/05 04:27:23;;;;;;;0.00;0.00;;;13.00;1.00;;;;;;5080147;28;20201;-68
2022/06/05 04:29:51;;;;;;;0.00;0.00;;;13.10;1.00;;;;;;5080584;28;20200;-68
2022/06/05 04:32:19;;;;;;;0.10;0.10;;;13.20;1.00;;;;;;5080408;28;20198;-68
2022/06/05 04:34:47;;;;;;;0.00;0.00;;;13.20;1.00;;;;;;5078447;28;20287;-68
2022/06/05 04:37:15;;;;;;;0.10;0.10;;;13.10;1.00;;;;;;5079336;28;20216;-68
2022/06/05 04:39:44;;;;;;;0.10;0.10;;;13.10;1.00;;;;;;5079381;28;20326;-68
2022/06/05 04:42:12;;;;;;;0.00;0.00;;;13.20;1.00;;;;;;5079564;28;20205;-68
2022/06/05 04:44:40;;;;;;;0.10;0.10;;;13.30;1.00;;;;;;5078912;28;20284;-68
2022/06/05 04:47:07;;;;;;;0.10;0.10;;;13.10;1.00;;;;;;5080047;28;20201;-68
2022/06/05 04:49:35;;;;;;;0.10;0.10;;;13.10;1.00;;;;;;5077112;28;20209;-68
2022/06/05 04:52:03;;;;;;;0.10;0.10;;;13.00;1.00;;;;;;5078689;28;20202;-68
2022/06/05 04:54:31;;;;;;;0.00;0.00;;;13.00;1.00;;;;;;5079531;28;20217;-68
2022/06/05 04:57:00;;;;;;;0.00;0.00;;;12.80;1.00;;;;;;5079548;28;20314;-68
2022/06/05 04:59:28;;;;;;;0.10;0.10;;;12.80;1.00;;;;;;5078886;28;20204;-68
2022/06/05 05:01:56;;;;;;;0.00;0.00;;;13.00;1.00;;;;;;5079332;28;20221;-68
2022/06/05 05:04:24;;;;;;;0.10;0.10;;;13.10;1.00;;;;;;5079840;28;20730;-68
2022/06/05 05:06:52;;;;;;;0.10;0.10;;;13.10;1.00;;;;;;5079783;28;20601;-68
2022/06/05 05:09:20;;;;;;;0.10;0.10;;;13.10;1.00;;;;;;5078288;28;20197;-68
2022/06/05 05:11:47;;;;;;;0.10;0.10;;;13.10;1.00;;;;;;5078031;28;20213;-68
2022/06/05 05:14:17;;;;;;;0.10;0.10;;;13.10;1.00;;;;;;5078775;28;20476;-68
2022/06/05 05:16:44;;;;;;;0.08;0.08;;;13.10;1.00;;;;;;5077923;28;20689;-68
2022/06/05 05:19:12;;;;;;;0.10;0.10;;;13.20;1.00;;;;;;5080453;28;20291;-68
2022/06/05 05:21:40;;;;;;;0.00;0.00;;;13.30;1.00;;;;;;5079089;28;20202;-69
2022/06/05 05:24:08;;;;;;;0.08;0.08;;;13.30;1.00;;;;;;5078672;28;20226;-69
2022/06/05 05:26:36;;;;;;;0.05;0.05;;;13.40;1.00;;;;;;5078733;28;20201;-68
2022/06/05 05:29:06;;;;;;;0.10;0.10;;;13.50;1.00;;;;;;5078626;28;20196;-68
2022/06/05 05:31:38;;;;;;;0.10;0.10;;;13.60;1.00;;;;;;5077796;28;20675;-69
2022/06/05 05:34:07;;;;;;;0.00;0.00;;;13.80;1.00;;;;;;5077785;28;20226;-68
2022/06/05 05:36:35;;;;;;;0.10;0.10;;;14.00;1.00;;;;;;5077025;28;20762;-69
2022/06/05 05:42:06;;;;;;;0.08;0.08;;;14.30;1.00;;;;;;5076066;28;20201;-68
2022/06/05 05:44:36;;;;;;;0.10;0.10;;;14.50;1.00;;;;;;5078667;28;20240;-68
2022/06/05 05:47:07;;;;;;;0.00;0.00;;;14.60;1.00;;;;;;5075119;28;20201;-68
2022/06/05 05:49:35;;;;;;;0.00;0.00;;;14.80;1.00;;;;;;5076841;28;20201;-68
2022/06/05 05:52:04;;;;;;;0.00;0.00;;;15.00;1.00;;;;;;5078892;28;20734;-68
2022/06/05 05:54:33;;;;;;;0.00;0.00;;;15.10;1.00;;;;;;5079047;28;20750;-68
2022/06/05 05:57:01;;;;;;;0.10;0.10;;;15.10;1.00;;;;;;5078089;28;20228;-68
2022/06/05 05:59:29;;;;;;;0.08;0.08;;;15.30;1.00;;;;;;5082096;28;20213;-69
2022/06/05 06:01:56;;;;;;;0.00;0.00;;;15.50;1.00;;;;;;5082237;28;20254;-69
2022/06/05 06:04:26;;;;;;;0.00;0.00;;;15.70;1.00;;;;;;5082409;28;20221;-70
2022/06/05 06:06:54;;;;;;;0.00;0.00;;;15.90;1.00;;;;;;5083046;28;20209;-68
2022/06/05 06:09:22;;;;;;;0.00;0.00;;;16.00;1.00;;;;;;5081827;28;20676;-69
2022/06/05 06:11:50;;;;;;;0.00;0.00;;;16.20;1.00;;;;;;5081958;28;20571;-69
2022/06/05 06:14:17;;;;;;;0.00;0.00;;;16.30;1.00;;;;;;5079694;28;20220;-69
2022/06/05 06:16:45;;;;;;;0.00;0.00;;;16.30;1.00;;;;;;5081771;28;20240;-69
2022/06/05 06:19:13;;;;;;;0.00;0.00;;;16.30;1.00;;;;;;5081409;28;20234;-69
2022/06/05 06:21:43;;;;;;;0.08;0.08;;;16.50;1.00;;;;;;5080688;28;20193;-69
2022/06/05 06:24:11;;;;;;;0.00;0.00;;;16.60;1.00;;;;;;5080467;28;20276;-69
2022/06/05 06:26:38;;;;;;;0.03;0.03;;;16.80;1.00;;;;;;5081581;28;20202;-68
2022/06/05 06:29:07;;;;;;;0.00;0.00;;;17.00;1.00;;;;;;5081874;28;20206;-69
2022/06/05 06:31:38;;;;;;;0.00;0.00;;;17.10;1.00;;;;;;5080557;28;20202;-69
2022/06/05 06:34:06;;;;;;;0.00;0.00;;;17.30;1.00;;;;;;5081508;28;20221;-69
2022/06/05 06:36:34;;;;;;;0.00;0.00;;;17.40;1.00;;;;;;5080828;28;20217;-69
2022/06/05 06:39:20;;;;;;;0.00;0.00;;;17.60;1.00;;;;;;5081813;28;20201;-69
2022/06/05 06:41:49;;;;;;;0.00;0.00;;;17.70;1.00;;;;;;5080847;28;20299;-69
2022/06/05 06:44:17;;;;;;;0.00;0.00;;;17.90;99.90;;;;;;5079026;28;20387;-69
2022/06/05 06:46:45;;;;;;;0.00;0.00;;;18.00;99.90;;;;;;5079378;28;20197;-69
2022/06/05 06:49:13;;;;;;;0.00;0.00;;;18.10;99.90;;;;;;5079353;28;20248;-68
2022/06/05 06:51:41;;;;;;;0.00;0.00;;;18.30;99.90;;;;;;5080160;28;20204;-69
2022/06/05 06:54:09;;;;;;;0.00;0.00;;;18.40;99.90;;;;;;5081465;28;20221;-69
2022/06/05 06:56:38;;;;;;;0.00;0.00;;;18.50;99.90;;;;;;5077780;28;20222;-69
2022/06/05 06:59:06;;;;;;;0.00;0.00;;;18.60;99.90;;;;;;5079029;28;20577;-69
2022/06/05 07:01:34;;;;;;;0.00;0.00;;;18.60;99.90;;;;;;5081861;28;20194;-69
2022/06/05 07:04:02;;;;;;;0.00;0.00;;;18.70;99.90;;;;;;5080168;28;20218;-69
2022/06/05 07:06:30;;;;;;;0.00;0.00;;;18.80;99.90;;;;;;5078742;28;20201;-69
2022/06/05 07:08:58;;;;;;;0.00;0.00;;;19.00;99.90;;;;;;5080613;28;20206;-68
2022/06/05 07:11:26;;;;;;;0.00;0.00;;;19.10;99.90;;;;;;5078314;28;20749;-68
2022/06/05 07:13:56;;;;;;;0.00;0.00;;;19.30;87.00;;;;;;5080073;28;20622;-68
2022/06/05 07:16:24;;;;;;;0.00;0.00;;;19.50;1.00;;;;;;5078422;28;20734;-68
2022/06/05 07:18:51;;;;;;;0.00;0.00;;;19.50;1.00;;;;;;5078897;28;20239;-68
2022/06/05 07:21:21;;;;;;;0.10;0.10;;;19.60;1.00;;;;;;5081022;28;20707;-68
2022/06/05 07:23:53;;;;;;;0.00;0.00;;;19.70;1.00;;;;;;5082059;28;20222;-68
2022/06/05 07:26:23;;;;;;;0.00;0.00;;;19.70;1.00;;;;;;5082537;28;20200;-69
2022/06/05 07:28:51;;;;;;;0.00;0.00;;;19.70;1.00;;;;;;5079184;28;20562;-69
2022/06/05 07:31:20;;;;;;;0.00;0.00;;;19.80;1.00;;;;;;5079130;28;20205;-69
2022/06/05 07:33:48;;;;;;;0.00;0.00;;;20.00;1.00;;;;;;5075596;28;20224;-69
2022/06/05 07:36:20;;;;;;;0.00;0.00;;;20.10;1.00;;;;;;5078093;28;20495;-69
2022/06/05 07:38:49;;;;;;;0.00;0.00;;;20.30;1.00;;;;;;5076785;28;20634;-69
2022/06/05 07:41:19;;;;;;;0.00;0.00;;;20.40;1.00;;;;;;5079686;28;20255;-69
2022/06/05 07:43:48;;;;;;;0.00;0.00;;;20.40;1.00;;;;;;5077849;28;20229;-69
2022/06/05 07:46:17;;;;;;;0.00;0.00;;;20.40;1.00;;;;;;5080777;28;20201;-69
2022/06/05 07:48:46;;;;;;;0.00;0.00;;;20.50;1.00;;;;;;5079607;28;20193;-69
2022/06/05 07:57:02;;;;;;;0.00;0.00;;;21.00;1.00;;;;;;5067710;28;20267;-69
2022/06/05 07:59:32;;;;;;;0.00;0.00;;;21.30;1.00;;;;;;5075896;28;20210;-69
2022/06/05 08:02:03;;;;;;;0.00;0.00;;;21.40;1.00;;;;;;5081108;28;20208;-69
2022/06/05 08:04:36;;;;;;;0.00;0.00;;;21.60;99.90;;;;;;5078193;28;20228;-69
2022/06/05 08:07:05;;;;;;;0.00;0.00;;;21.70;16.30;;;;;;5080574;28;20205;-69
2022/06/05 08:09:34;;;;;;;0.00;0.00;;;21.80;1.00;;;;;;5077325;28;20204;-68
2022/06/05 08:12:03;;;;;;;0.00;0.00;;;21.90;1.00;;;;;;5080260;28;20201;-69
2022/06/05 08:14:34;;;;;;;0.00;0.00;;;21.90;1.00;;;;;;5080217;28;20225;-70
2022/06/05 08:17:04;;;;;;;0.00;0.00;;;22.00;1.00;;;;;;5076152;28;20275;-72
2022/06/05 08:19:38;;;;;;;0.00;0.00;;;22.10;1.00;;;;;;5080057;28;20210;-69
2022/06/05 08:22:07;;;;;;;0.00;0.00;;;22.20;1.00;;;;;;5076321;28;20828;-69
2022/06/05 08:24:35;;;;;;;0.00;0.00;;;22.10;99.90;;;;;;5078777;28;20225;-69
2022/06/05 08:27:11;;;;;;;0.00;0.00;;;22.20;99.90;;;;;;5078440;28;20619;-69
2022/06/05 08:29:39;;;;;;;0.00;0.00;;;22.30;1.00;;;;;;5079201;28;20202;-69
2022/06/05 08:32:08;;;;;;;0.00;0.00;;;22.40;66.90;;;;;;5080144;28;20232;-70
2022/06/05 08:34:37;;;;;;;0.00;0.00;;;22.60;99.90;;;;;;5081270;28;20282;-69
2022/06/05 08:42:55;;;;;;;0.00;0.00;;;23.10;99.90;;;;;;5080233;28;20664;-69
2022/06/05 08:45:35;;;;;;;0.00;0.00;;;23.30;1.00;;;;;;5079857;28;20236;-69
2022/06/05 08:48:09;;;;;;;0.00;0.00;;;23.60;99.90;;;;;;5079503;28;20589;-69
2022/06/05 08:50:44;;;;;;;0.00;0.00;;;23.80;1.00;;;;;;5079553;28;20197;-69
2022/06/05 08:53:19;;;;;;;0.00;0.00;;;23.90;99.90;;;;;;5080694;28;20689;-69
2022/06/05 08:55:48;;;;;;;0.00;0.00;;;24.10;1.00;;;;;;5077837;28;20201;-69
2022/06/05 08:58:23;;;;;;;0.00;0.00;;;24.30;1.00;;;;;;5079045;28;21213;-69
2022/06/05 09:00:55;;;;;;;0.00;0.00;;;24.50;1.00;;;;;;5079113;28;20201;-69
2022/06/05 09:03:30;;;;;;;0.00;0.00;;;24.70;99.90;;;;;;5078360;28;20644;-69
2022/06/05 09:06:05;;;;;;;0.00;0.00;;;24.90;1.00;;;;;;5080038;28;20211;-69
2022/06/05 09:08:38;;;;;;;0.00;0.00;;;24.90;1.00;;;;;;5079153;28;20204;-69
2022/06/05 09:11:11;;;;;;;0.00;0.00;;;24.90;1.00;;;;;;5080212;28;20254;-69
2022/06/05 09:13:46;;;;;;;0.00;0.00;;;25.00;1.00;;;;;;5079681;28;20213;-70
2022/06/05 09:16:16;;;;;;;0.00;0.00;;;25.10;1.00;;;;;;5078689;28;20652;-69
2022/06/05 09:18:46;;;;;;;0.00;0.00;;;25.00;99.90;;;;;;5078707;28;20747;-69
2022/06/05 09:21:23;;;;;;;0.00;0.00;;;25.10;99.90;;;;;;5078492;28;20258;-69
2022/06/05 09:24:05;;;;;;;0.00;0.00;;;25.20;1.00;;;;;;5079090;28;20229;-69
2022/06/05 09:26:42;;;;;;;0.00;0.00;;;25.20;1.00;;;;;;5079513;28;20216;-69
2022/06/05 09:29:20;;;;;;;0.00;0.00;;;25.20;1.00;;;;;;5078886;28;20197;-69
2022/06/05 09:32:04;;;;;;;0.00;0.00;;;25.00;1.00;;;;;;5077446;28;20206;-69
2022/06/05 09:34:36;;;;;;;0.00;0.00;;;24.90;99.90;;;;;;5083593;28;20282;-69
2022/06/05 09:37:14;;;;;;;0.00;0.00;;;24.80;1.00;;;;;;5081174;28;20626;-69
2022/06/05 09:39:46;;;;;;;0.00;0.00;;;24.50;1.00;;;;;;5084015;28;20207;-69
2022/06/05 09:42:42;;;;;;;0.00;0.00;;;24.30;99.90;;;;;;5082156;28;20204;-69
2022/06/05 09:45:21;;;;;;;0.00;0.00;;;24.20;1.00;;;;;;5078656;28;20735;-69
2022/06/05 09:48:00;;;;;;;0.00;0.00;;;24.20;1.00;;;;;;5082401;28;20254;-69
2022/06/05 09:50:29;;;;;;;0.00;0.00;;;24.20;1.00;;;;;;5084864;28;20205;-69
2022/06/05 09:52:59;;;;;;;0.00;0.00;;;24.10;1.00;;;;;;5082447;28;20201;-68
2022/06/05 09:55:41;;;;;;;0.00;0.00;;;24.30;1.00;;;;;;5085595;28;20235;-69
2022/06/05 09:58:27;;;;;;;0.00;0.00;;;24.50;1.00;;;;;;5082654;28;20217;-70
2022/06/05 10:00:57;;;;;;;0.00;0.00;;;24.80;1.00;;;;;;5083893;28;20204;-69
2022/06/05 10:03:29;;;;;;;0.00;0.00;;;24.70;1.00;;;;;;5083484;28;20224;-69
2022/06/05 10:06:19;;;;;;;0.00;0.00;;;24.70;99.90;;;;;;5083175;28;20297;-70
2022/06/05 10:08:51;;;;;;;0.00;0.00;;;24.90;99.90;;;;;;5081234;28;20197;-70
2022/06/05 10:11:24;;;;;;;0.00;0.00;;;24.90;1.00;;;;;;5081842;28;20267;-70
2022/06/05 10:14:01;;;;;;;0.00;0.00;;;24.90;1.00;;;;;;5082483;28;20218;-70
2022/06/05 10:16:35;;;;;;;0.00;0.00;;;24.80;1.00;;;;;;5081110;28;20208;-70
2022/06/05 10:19:24;;;;;;;0.00;0.00;;;24.60;1.00;;;;;;5081808;28;20703;-70
2022/06/05 10:22:03;;;;;;;0.00;0.00;;;24.50;99.90;;;;;;5082169;28;20201;-69
2022/06/05 10:24:46;;;;;;;0.00;0.00;;;24.50;99.90;;;;;;5082790;28;20765;-69
2022/06/05 10:27:16;;;;;;;0.00;0.00;;;24.70;99.90;;;;;;5083811;28;20197;-69
2022/06/05 10:29:48;;;;;;;0.00;0.00;;;25.00;21.10;;;;;;5082690;28;20209;-69
2022/06/05 10:32:26;;;;;;;0.00;0.00;;;25.20;1.00;;;;;;5083155;28;20208;-69
2022/06/05 10:34:59;;;;;;;0.00;0.00;;;25.20;1.00;;;;;;5083292;28;20213;-70
2022/06/05 10:37:34;;;;;;;0.00;0.00;;;25.10;1.00;;;;;;5082465;28;20221;-70
2022/06/05 10:40:22;;;;;;;0.00;0.00;;;24.90;1.00;;;;;;5083570;28;20192;-69
2022/06/05 10:42:55;;;;;;;0.00;0.00;;;24.70;1.00;;;;;;5081575;28;20204;-69
2022/06/05 10:45:40;;;;;;;0.00;0.00;;;24.70;99.90;;;;;;5082454;28;20262;-69
2022/06/05 10:48:27;;;;;;;0.00;0.00;;;24.90;99.90;;;;;;5081259;28;20201;-69
2022/06/05 10:50:59;;;;;;;0.00;0.00;;;24.60;1.00;;;;;;5082517;28;20205;-70
2022/06/05 10:53:33;;;;;;;0.00;0.00;;;24.20;1.00;;;;;;5082568;28;20289;-69
2022/06/05 10:56:18;;;;;;;0.00;0.00;;;24.30;1.00;;;;;;5083592;28;20205;-69
2022/06/05 10:58:53;;;;;;;0.00;0.00;;;24.40;1.00;;;;;;5084897;28;20221;-69
2022/06/05 11:01:53;;;;;;;0.00;0.00;;;24.60;1.00;;;;;;5085233;28;20201;-70
2022/06/05 11:04:37;;;;;;;0.00;0.00;;;24.80;99.90;;;;;;5081946;28;20217;-70
2022/06/05 11:07:19;;;;;;;0.00;0.00;;;25.00;99.90;;;;;;5080808;28;20201;-69
2022/06/05 11:09:52;;;;;;;0.00;0.00;;;24.90;1.00;;;;;;5081343;28;20206;-69
2022/06/05 11:15:17;;;;;;;0.00;0.00;;;25.10;10.10;;;;;;5081085;28;20221;-69
2022/06/05 11:17:55;;;;;;;0.00;0.00;;;25.30;1.00;;;;;;5082532;28;20304;-70
2022/06/05 11:20:26;;;;;;;0.00;0.00;;;25.40;1.00;;;;;;5082079;28;20230;-70
2022/06/05 11:22:58;;;;;;;0.00;0.00;;;25.60;1.00;;;;;;5079557;28;20668;-69
2022/06/05 11:25:32;;;;;;;0.00;0.00;;;25.50;1.00;;;;;;5080807;28;20677;-70
2022/06/05 11:28:27;;;;;;;0.00;0.00;;;25.70;1.00;;;;;;5079958;28;20249;-69
2022/06/05 11:31:10;;;;;;;0.00;0.00;;;25.60;1.00;;;;;;5081860;28;20193;-69
2022/06/05 11:33:46;;;;;;;0.00;0.00;;;25.20;1.00;;;;;;5081153;28;20256;-70
2022/06/05 11:36:23;;;;;;;0.00;0.00;;;25.10;1.00;;;;;;5081391;28;20212;-70
2022/06/05 11:39:05;;;;;;;0.00;0.00;;;25.20;1.00;;;;;;5079261;28;20228;-70
2022/06/05 11:41:39;;;;;;;0.00;0.00;;;25.20;1.00;;;;;;5081707;28;20206;-70
2022/06/05 11:44:34;;;;;;;0.00;0.00;;;25.40;1.00;;;;;;5081024;28;20290;-70
2022/06/05 11:47:04;;;;;;;0.00;0.00;;;25.50;1.00;;;;;;5081536;28;20284;-70
2022/06/05 11:49:53;;;;;;;0.00;0.00;;;25.60;1.00;;;;;;5080872;28;20209;-70
2022/06/05 11:52:29;;;;;;;0.00;0.00;;;25.30;1.00;;;;;;5079170;28;20208;-71
2022/06/05 11:55:04;;;;;;;0.00;0.00;;;25.20;1.00;;;;;;5080256;28;20214;-70
2022/06/05 11:57:38;;;;;;;0.00;0.00;;;25.40;1.00;;;;;;5080192;28;20196;-70
2022/06/05 12:00:14;;;;;;;0.00;0.00;;;25.60;1.00;;;;;;5079804;28;20198;-70
2022/06/05 12:02:54;;;;;;;0.00;0.00;;;25.50;1.00;;;;;;5080356;28;20579;-70
2022/06/05 12:05:35;;;;;;;0.00;0.00;;;25.70;1.00;;;;;;5081413;28;20697;-70
2022/06/05 12:08:07;;;;;;;0.00;0.00;;;25.80;1.00;;;;;;5080527;28;20646;-70
2022/06/05 12:10:40;;;;;;;0.00;0.00;;;25.90;1.00;;;;;;5080352;28;21038;-70
2022/06/05 12:13:37;;;;;;;0.00;0.00;;;26.00;1.00;;;;;;5079385;28;20201;-70
2022/06/05 12:16:10;;;;;;;0.00;0.00;;;26.10;99.90;;;;;;5080327;28;20227;-70
2022/06/05 12:18:45;;;;;;;0.00;0.00;;;26.00;99.90;;;;;;5079727;28;20213;-71
2022/06/05 12:21:19;;;;;;;0.00;0.00;;;26.00;99.90;;;;;;5081004;28;20200;-70
2022/06/05 12:23:53;;;;;;;0.00;0.00;;;26.20;99.90;;;;;;5080158;28;20549;-70
2022/06/05 12:26:35;;;;;;;0.00;0.00;;;26.30;99.90;;;;;;5078324;28;20269;-71
2022/06/05 12:29:11;;;;;;;0.00;0.00;;;26.40;99.90;;;;;;5079567;28;20563;-70
2022/06/05 12:31:47;;;;;;;0.00;0.00;;;26.50;99.90;;;;;;5080451;28;20660;-70
2022/06/05 12:34:19;;;;;;;0.00;0.00;;;26.60;99.90;;;;;;5079632;28;20267;-72
2022/06/05 12:36:55;;;;;;;0.00;0.00;;;26.70;99.90;;;;;;5078066;28;20200;-71
2022/06/05 12:39:26;;;;;;;0.00;0.00;;;26.60;99.90;;;;;;5079909;28;20703;-70
2022/06/05 12:42:07;;;;;;;0.00;0.00;;;26.70;99.90;;;;;;5080393;28;20208;-71
2022/06/05 12:44:44;;;;;;;0.00;0.00;;;26.70;99.90;;;;;;5079823;28;20244;-70
2022/06/05 12:47:35;;;;;;;0.00;0.00;;;26.70;99.90;;;;;;5079107;28;20726;-71
2022/06/05 12:50:15;;;;;;;0.00;0.00;;;26.70;94.00;;;;;;5079943;28;20209;-71
2022/06/05 12:52:51;;;;;;;0.00;0.00;;;26.50;71.90;;;;;;5079038;28;20649;-71
2022/06/05 12:55:24;;;;;;;0.00;0.00;;;26.10;93.20;;;;;;5079965;28;20224;-70
2022/06/05 12:58:00;;;;;;;0.00;0.00;;;26.20;91.10;;;;;;5078619;28;20197;-70
2022/06/05 13:00:37;;;;;;;0.00;0.00;;;25.80;99.90;;;;;;5079305;28;20229;-70
2022/06/05 13:03:18;;;;;;;0.00;0.00;;;25.90;98.90;;;;;;5079199;28;20208;-71
2022/06/05 13:05:50;;;;;;;0.00;0.00;;;26.00;99.90;;;;;;5079683;28;20280;-69
2022/06/05 13:08:31;;;;;;;0.00;0.00;;;25.50;99.90;;;;;;5077634;28;20255;-70
2022/06/05 13:11:05;;;;;;;0.00;0.00;;;25.30;99.90;;;;;;5078620;28;20300;-70
2022/06/05 13:13:45;;;;;;;0.00;0.00;;;25.10;99.90;;;;;;5077660;28;20224;-70
2022/06/05 13:16:23;;;;;;;0.00;0.00;;;24.90;99.90;;;;;;5079569;28;20212;-70
2022/06/05 13:19:03;;;;;;;0.00;0.00;;;24.80;99.90;;;;;;5077236;28;20221;-70
2022/06/05 13:21:36;;;;;;;0.00;0.00;;;24.80;99.90;;;;;;5079068;28;20495;-69
2022/06/05 13:24:17;;;;;;;0.00;0.00;;;24.60;99.90;;;;;;5078951;28;20627;-69
2022/06/05 13:26:53;;;;;;;0.00;0.00;;;24.60;99.90;;;;;;5078773;28;20204;-70
2022/06/05 13:29:36;;;;;;;0.00;0.00;;;24.60;99.90;;;;;;5078864;28;20216;-70
2022/06/05 13:32:11;;;;;;;0.00;0.00;;;24.40;99.90;;;;;;5078385;28;20618;-70
2022/06/05 13:35:07;;;;;;;0.00;0.00;;;24.30;99.90;;;;;;5078852;28;20216;-70
2022/06/05 13:37:41;;;;;;;0.00;0.00;;;24.30;99.90;;;;;;5078688;28;20613;-70
2022/06/05 13:40:17;;;;;;;0.00;0.00;;;24.30;99.90;;;;;;5076566;28;20221;-70
2022/06/05 13:42:49;;;;;;;0.00;0.00;;;24.20;1.00;;;;;;5078563;28;20235;-70
2022/06/05 13:45:29;;;;;;;0.00;0.00;;;24.20;1.00;;;;;;5078759;28;20214;-70